Time;durP1;ratioP1;P1;durP2;ratioP2;P2;SDS_P1;SDS_P2;PMS_P1;PMS_P2;Temp;Humidity;BMP_temperature;BMP_pressure;BME280_temperature;BME280_humidity;BME280_pressure;Samples;Min_cycle;Max_cycle;Signal;HPM_P1;HPM_P2
2021/06/24 00:09:25;;;;;;;2.50;0.60;;;19.70;44.60;;;;;;20497730;28;82102;-70
2021/06/24 00:19:27;;;;;;;2.90;0.52;;;19.50;45.40;;;;;;20515687;28;81421;-70
2021/06/24 00:29:28;;;;;;;2.50;0.60;;;19.50;45.90;;;;;;20508073;28;80679;-69
2021/06/24 00:39:30;;;;;;;1.67;0.60;;;19.30;46.40;;;;;;20473906;28;80468;-70
2021/06/24 00:49:33;;;;;;;2.92;0.60;;;19.10;47.10;;;;;;20521403;28;80777;-70
2021/06/24 00:59:37;;;;;;;2.13;0.40;;;19.10;47.50;;;;;;20507482;28;80652;-70
2021/06/24 01:09:39;;;;;;;1.65;0.57;;;18.90;47.90;;;;;;20520542;28;80764;-72
2021/06/24 01:19:43;;;;;;;1.25;0.40;;;18.70;48.50;;;;;;20472861;28;80692;-70
2021/06/24 01:29:46;;;;;;;0.80;0.30;;;18.60;48.80;;;;;;20538068;28;80682;-68
2021/06/24 01:39:48;;;;;;;1.63;0.52;;;18.50;49.20;;;;;;20514558;28;80534;-68
2021/06/24 01:49:51;;;;;;;1.38;0.55;;;18.40;49.80;;;;;;20517715;28;80296;-68
2021/06/24 01:59:53;;;;;;;1.87;0.70;;;18.40;49.80;;;;;;20525360;28;81637;-67
2021/06/24 02:09:55;;;;;;;1.80;0.50;;;18.20;50.20;;;;;;20501042;28;80639;-69
2021/06/24 02:19:58;;;;;;;1.87;0.60;;;18.10;50.60;;;;;;20526285;28;81675;-68
2021/06/24 02:30:00;;;;;;;2.42;0.40;;;18.00;50.70;;;;;;20485291;28;81969;-67
2021/06/24 02:40:03;;;;;;;1.40;0.50;;;17.90;51.10;;;;;;20501011;28;81810;-70
2021/06/24 02:50:09;;;;;;;2.78;0.80;;;17.90;51.40;;;;;;20479460;28;80549;-70
2021/06/24 03:00:13;;;;;;;4.63;0.73;;;17.80;51.60;;;;;;20506722;28;80600;-70
2021/06/24 03:10:17;;;;;;;1.60;0.57;;;17.80;51.70;;;;;;20514366;28;80975;-70
2021/06/24 03:20:22;;;;;;;1.08;0.50;;;17.60;52.00;;;;;;20497223;28;81092;-70
2021/06/24 03:30:25;;;;;;;3.42;0.70;;;17.60;52.10;;;;;;20480328;28;81154;-70
2021/06/24 03:40:27;;;;;;;1.87;0.60;;;17.50;52.50;;;;;;20514133;28;81389;-70
2021/06/24 03:50:35;;;;;;;1.42;0.57;;;17.40;52.40;;;;;;20485983;28;80776;-70
2021/06/24 04:00:43;;;;;;;1.60;0.57;;;17.40;52.60;;;;;;20507821;28;80850;-69
2021/06/24 04:10:48;;;;;;;2.78;1.00;;;17.30;52.90;;;;;;20520958;28;80813;-70
2021/06/24 04:20:58;;;;;;;3.28;0.88;;;17.20;53.30;;;;;;20509931;28;80979;-70
2021/06/24 04:31:10;;;;;;;1.52;0.60;;;17.20;53.30;;;;;;20512526;28;80503;-70
2021/06/24 04:41:18;;;;;;;1.73;0.50;;;17.20;53.00;;;;;;20502181;28;81573;-70
2021/06/24 04:51:29;;;;;;;1.63;0.45;;;17.20;52.90;;;;;;20527921;28;80774;-70
2021/06/24 05:01:32;;;;;;;;;;;17.20;52.80;;;;;;20523693;28;81993;-70
2021/06/24 05:11:39;;;;;;;3.05;1.00;;;17.30;52.60;;;;;;20557795;28;80691;-69
2021/06/24 05:21:42;;;;;;;1.27;0.50;;;17.30;52.60;;;;;;20492344;28;80229;-69
2021/06/24 05:31:45;;;;;;;1.52;0.65;;;17.10;52.60;;;;;;20508523;28;80869;-69
2021/06/24 05:41:48;;;;;;;1.30;0.47;;;17.10;53.00;;;;;;20465389;28;80154;-69
2021/06/24 05:51:51;;;;;;;1.20;0.45;;;17.20;52.60;;;;;;20541455;28;80669;-69
2021/06/24 06:01:54;;;;;;;;;;;17.40;52.00;;;;;;20484753;28;83261;-70
2021/06/24 06:11:58;;;;;;;2.88;0.75;;;17.60;52.00;;;;;;20510871;28;80413;-69
2021/06/24 06:22:00;;;;;;;2.47;0.60;;;17.70;51.70;;;;;;20513380;28;80202;-70
2021/06/24 06:32:08;;;;;;;0.98;0.47;;;17.70;52.00;;;;;;20506783;28;81040;-70
2021/06/24 06:42:14;;;;;;;1.50;0.40;;;17.80;51.80;;;;;;20508964;28;80781;-69
2021/06/24 06:52:19;;;;;;;1.48;0.60;;;18.20;50.60;;;;;;20483765;28;81325;-76
2021/06/24 07:02:23;;;;;;;7.00;3.28;;;18.40;50.50;;;;;;20476194;28;81631;-77
2021/06/24 07:12:26;;;;;;;15.52;8.65;;;18.40;50.40;;;;;;20533475;28;81117;-77
2021/06/24 07:22:28;;;;;;;7.67;4.13;;;18.40;50.60;;;;;;20505711;28;83770;-77
2021/06/24 07:32:29;;;;;;;2.95;1.13;;;18.70;50.10;;;;;;20525722;28;82249;-75
2021/06/24 07:42:35;;;;;;;3.72;0.80;;;18.90;49.60;;;;;;20518080;28;81669;-76
2021/06/24 07:52:39;;;;;;;23.25;14.57;;;19.10;49.90;;;;;;20559447;28;80455;-74
2021/06/24 08:02:43;;;;;;;51.78;29.92;;;19.20;49.70;;;;;;20524681;28;84377;-76
2021/06/24 08:12:46;;;;;;;32.40;17.90;;;19.40;49.40;;;;;;20531341;28;83507;-75
2021/06/24 08:22:50;;;;;;;16.27;10.10;;;19.50;49.50;;;;;;20528892;28;83412;-75
2021/06/24 08:32:52;;;;;;;6.40;1.27;;;19.70;48.90;;;;;;20489866;28;83358;-72
2021/06/24 08:42:55;;;;;;;2.70;1.10;;;19.90;49.00;;;;;;20553667;28;83181;-73
2021/06/24 08:52:58;;;;;;;3.72;0.75;;;20.10;49.10;;;;;;20516887;28;80830;-73
2021/06/24 09:03:17;;;;;;;8.40;0.90;;;20.40;48.80;;;;;;20507385;28;80654;-73
2021/06/24 09:13:26;;;;;;;2.55;1.00;;;20.70;49.50;;;;;;20539493;28;80784;-73
2021/06/24 09:23:28;;;;;;;7.15;1.30;;;20.90;50.70;;;;;;20500711;28;82996;-73
2021/06/24 09:33:38;;;;;;;3.13;1.27;;;21.40;50.70;;;;;;20520859;28;81536;-72
2021/06/24 09:43:45;;;;;;;4.67;1.30;;;21.80;49.90;;;;;;20520114;28;82758;-72
2021/06/24 09:54:10;;;;;;;5.65;1.85;;;22.40;49.00;;;;;;20494923;28;80753;-74
2021/06/24 10:04:28;;;;;;;2.60;0.90;;;23.10;47.90;;;;;;20488937;28;80957;-74
2021/06/24 10:14:31;;;;;;;2.58;1.02;;;23.90;45.90;;;;;;20538506;28;80730;-73
2021/06/24 10:24:35;;;;;;;;;;;24.50;44.70;;;;;;20516741;28;81261;-75
2021/06/24 10:34:48;;;;;;;2.53;1.15;;;25.00;43.70;;;;;;20524069;28;80419;-73
2021/06/24 10:44:56;;;;;;;37.70;22.15;;;25.50;42.70;;;;;;20509748;28;80711;-73
2021/06/24 10:54:59;;;;;;;16.40;10.68;;;26.10;41.90;;;;;;20529519;28;83235;-73
2021/06/24 11:05:17;;;;;;;3.92;1.45;;;28.80;36.30;;;;;;20496764;28;83183;-73
2021/06/24 11:15:52;;;;;;;5.35;1.40;;;31.50;32.20;;;;;;20519963;28;81994;-76
2021/06/24 11:26:10;;;;;;;6.43;0.80;;;32.20;29.90;;;;;;20488023;28;80878;-74
2021/06/24 11:36:16;;;;;;;5.90;1.00;;;32.70;30.30;;;;;;20515889;28;81501;-73
2021/06/24 11:46:52;;;;;;;2.10;1.00;;;33.10;29.30;;;;;;20501799;28;80711;-72
2021/06/24 12:07:22;;;;;;;3.00;1.30;;;38.30;23.10;;;;;;20496681;28;80331;-72
2021/06/24 12:17:30;;;;;;;103.05;75.38;;;39.50;22.40;;;;;;20496217;28;82767;-74
2021/06/24 12:27:38;;;;;;;13.43;3.35;;;40.80;21.10;;;;;;20475798;28;83765;-74
2021/06/24 12:37:44;;;;;;;30.73;6.85;;;41.70;19.90;;;;;;20512676;28;83174;-75
2021/06/24 12:47:48;;;;;;;5.53;1.83;;;40.80;22.70;;;;;;20523223;28;81057;-74
2021/06/24 12:57:55;;;;;;;3.58;1.92;;;41.90;20.40;;;;;;20530782;28;80759;-76
2021/06/24 13:08:09;;;;;;;2.15;1.35;;;43.20;19.20;;;;;;20495113;28;80176;-74
2021/06/24 13:18:15;;;;;;;2.50;1.60;;;43.20;18.00;;;;;;20523616;28;81922;-75
2021/06/24 13:28:25;;;;;;;2.00;1.47;;;43.60;17.70;;;;;;20522632;28;80807;-76
2021/06/24 13:38:28;;;;;;;2.88;1.00;;;42.10;18.40;;;;;;20469119;28;80714;-75
2021/06/24 13:48:29;;;;;;;2.42;0.88;;;40.00;19.20;;;;;;20467265;28;80781;-74
2021/06/24 13:58:32;;;;;;;2.67;1.17;;;36.40;22.70;;;;;;20469006;28;80727;-74
2021/06/24 14:08:35;;;;;;;1.52;0.95;;;35.00;24.20;;;;;;20463612;28;80568;-75
2021/06/24 14:18:37;;;;;;;2.78;0.82;;;34.50;24.60;;;;;;20466346;28;80571;-74
2021/06/24 14:28:39;;;;;;;2.67;1.10;;;34.20;25.10;;;;;;20472031;28;80593;-77
2021/06/24 14:38:41;;;;;;;4.82;1.25;;;34.10;25.00;;;;;;20544960;28;82752;-77
2021/06/24 14:48:46;;;;;;;6.55;1.23;;;33.50;25.00;;;;;;20530918;28;82508;-74
2021/06/24 14:58:48;;;;;;;5.68;2.28;;;32.90;27.40;;;;;;20503678;28;80920;-75
2021/06/24 15:08:50;;;;;;;10.00;4.00;;;31.50;28.90;;;;;;20535274;28;81146;-71
2021/06/24 15:18:51;;;;;;;5.45;3.25;;;30.90;29.80;;;;;;20486538;28;80721;-71
2021/06/24 15:28:52;;;;;;;5.75;3.00;;;30.60;29.80;;;;;;20506575;28;82157;-71
2021/06/24 15:38:54;;;;;;;4.97;2.60;;;30.10;30.80;;;;;;20535757;28;80160;-71
2021/06/24 15:48:55;;;;;;;2.83;1.98;;;30.00;30.80;;;;;;20499035;28;80755;-71
2021/06/24 15:58:57;;;;;;;4.55;1.85;;;29.80;30.90;;;;;;20519559;28;81099;-71
2021/06/24 16:08:58;;;;;;;3.10;1.20;;;29.50;31.20;;;;;;20504282;28;81220;-71
2021/06/24 16:19:00;;;;;;;4.00;1.08;;;29.20;31.40;;;;;;20542919;28;81791;-71
2021/06/24 16:29:02;;;;;;;2.95;1.40;;;28.90;31.80;;;;;;20522970;28;82614;-72
2021/06/24 16:39:04;;;;;;;3.92;1.75;;;28.70;32.20;;;;;;20525919;28;82932;-73
2021/06/24 16:49:06;;;;;;;4.15;1.85;;;28.50;32.20;;;;;;20505051;28;82499;-72
2021/06/24 16:59:09;;;;;;;6.90;2.15;;;28.10;33.20;;;;;;20548503;28;82410;-70
2021/06/24 17:09:10;;;;;;;2.80;1.75;;;27.90;32.80;;;;;;20497737;28;83424;-70
2021/06/24 17:19:13;;;;;;;3.45;1.30;;;27.80;32.30;;;;;;20517528;28;81191;-70
2021/06/24 17:29:14;;;;;;;6.68;1.20;;;27.60;32.70;;;;;;20488676;28;81613;-73
2021/06/24 17:39:16;;;;;;;8.65;4.40;;;27.40;32.90;;;;;;20497094;28;81859;-72
2021/06/24 17:49:19;;;;;;;2.72;1.77;;;27.40;33.10;;;;;;20519979;28;80570;-73
2021/06/24 17:59:21;;;;;;;7.10;3.60;;;27.20;31.80;;;;;;20516071;28;80965;-73
2021/06/24 18:09:25;;;;;;;13.38;10.60;;;27.10;33.20;;;;;;20533207;28;83559;-68
2021/06/24 18:19:27;;;;;;;12.98;10.55;;;26.90;33.20;;;;;;20498529;28;82710;-71
2021/06/24 18:29:29;;;;;;;15.38;11.27;;;26.70;34.20;;;;;;20487917;28;83476;-70
2021/06/24 18:39:30;;;;;;;18.92;13.98;;;26.60;34.90;;;;;;20499694;28;84363;-71
2021/06/24 18:49:32;;;;;;;16.30;12.23;;;26.40;35.30;;;;;;20494622;28;85273;-73
2021/06/24 18:59:34;;;;;;;10.68;8.02;;;26.20;35.90;;;;;;20464076;28;82807;-73
2021/06/24 19:09:36;;;;;;;11.38;6.18;;;26.00;36.60;;;;;;20488591;28;86268;-74
2021/06/24 19:19:37;;;;;;;9.60;5.38;;;25.70;36.90;;;;;;20506245;28;80947;-70
2021/06/24 19:29:39;;;;;;;9.88;3.95;;;25.50;38.20;;;;;;20502225;28;81123;-70
2021/06/24 19:39:43;;;;;;;6.32;1.85;;;25.30;38.40;;;;;;20492776;28;80961;-69
2021/06/24 19:49:47;;;;;;;17.35;10.27;;;25.10;39.10;;;;;;20485542;28;81969;-70
2021/06/24 19:59:49;;;;;;;9.63;5.03;;;24.80;40.30;;;;;;20523235;28;82764;-68
2021/06/24 20:09:59;;;;;;;6.32;3.75;;;24.50;40.80;;;;;;20524517;28;83140;-69
2021/06/24 20:20:26;;;;;;;15.75;9.32;;;24.30;41.40;;;;;;20518305;28;81195;-67
2021/06/24 21:04:39;;;;;;;74.60;45.45;;;23.50;43.20;;;;;;20568438;23;80256;-70
2021/06/24 21:14:41;;;;;;;13.20;6.97;;;23.30;44.10;;;;;;20542894;28;83053;-71
2021/06/24 21:24:43;;;;;;;;;;;23.10;45.60;;;;;;20549914;28;82040;-70
2021/06/24 21:34:45;;;;;;;11.25;6.88;;;22.90;46.00;;;;;;20564811;28;80485;-70
2021/06/24 21:44:48;;;;;;;6.65;3.70;;;22.80;46.90;;;;;;20519582;28;81069;-68
2021/06/24 21:54:51;;;;;;;24.27;15.40;;;22.60;46.00;;;;;;20542947;28;81043;-72
2021/06/24 22:04:53;;;;;;;5.47;2.63;;;22.60;44.10;;;;;;20520304;28;84083;-71
2021/06/24 22:14:55;;;;;;;4.63;1.67;;;22.60;43.20;;;;;;20546857;28;83467;-71
2021/06/24 22:24:58;;;;;;;2.60;1.30;;;22.50;42.90;;;;;;20545123;28;82858;-70
2021/06/24 22:35:00;;;;;;;2.60;1.23;;;22.40;42.50;;;;;;20552322;28;80967;-72
2021/06/24 22:45:03;;;;;;;5.38;1.17;;;22.40;42.00;;;;;;20541236;28;81767;-68
2021/06/24 22:55:06;;;;;;;2.88;1.27;;;22.30;41.60;;;;;;20539665;28;80609;-67
2021/06/24 23:05:08;;;;;;;2.53;1.10;;;22.20;42.00;;;;;;20540340;28;81516;-67
2021/06/24 23:15:14;;;;;;;5.35;1.60;;;22.10;41.80;;;;;;20540621;28;81068;-66
2021/06/24 23:25:16;;;;;;;3.92;1.10;;;22.00;42.20;;;;;;20558662;28;83918;-67
2021/06/24 23:35:17;;;;;;;2.67;1.20;;;21.90;42.70;;;;;;20524682;28;81606;-66
2021/06/24 23:45:19;;;;;;;;;;;21.70;43.20;;;;;;20538028;28;80511;-67
2021/06/24 23:55:21;;;;;;;5.65;1.42;;;21.50;43.40;;;;;;20560521;28;82850;-66
